Time;durP1;ratioP1;P1;durP2;ratioP2;P2;SDS_P1;SDS_P2;PMS_P1;PMS_P2;Temp;Humidity;BMP_temperature;BMP_pressure;BME280_temperature;BME280_humidity;BME280_pressure;Samples;Min_cycle;Max_cycle;Signal;HPM_P1;HPM_P2
2021/03/30 00:02:20;;;;;;;5.50;3.60;;;10.30;72.90;;;;;;5055867;28;20534;-85
2021/03/30 00:04:47;;;;;;;8.27;3.00;;;10.40;72.70;;;;;;5055405;28;20444;-85
2021/03/30 00:07:13;;;;;;;5.50;2.67;;;10.30;72.60;;;;;;5056257;28;20472;-86
2021/03/30 00:09:40;;;;;;;6.03;2.87;;;10.30;72.60;;;;;;5056620;28;20454;-86
2021/03/30 00:12:07;;;;;;;6.80;2.90;;;10.40;72.60;;;;;;5060300;28;20485;-85
2021/03/30 00:14:34;;;;;;;5.57;3.23;;;10.30;72.80;;;;;;5057326;28;20845;-84
2021/03/30 00:17:00;;;;;;;6.43;2.73;;;10.20;73.40;;;;;;5059228;28;20457;-84
2021/03/30 00:19:27;;;;;;;8.03;3.00;;;10.20;73.60;;;;;;5059650;28;20857;-84
2021/03/30 00:21:53;;;;;;;6.13;3.00;;;10.20;73.50;;;;;;5069333;28;20448;-85
2021/03/30 00:24:19;;;;;;;6.47;2.73;;;10.20;74.00;;;;;;5063379;28;20468;-86
2021/03/30 00:26:47;;;;;;;5.43;2.80;;;10.10;74.50;;;;;;5070505;28;20444;-84
2021/03/30 00:29:13;;;;;;;7.00;3.03;;;10.00;74.60;;;;;;5069750;28;20456;-85
2021/03/30 00:31:39;;;;;;;6.80;2.73;;;10.00;74.30;;;;;;5060700;28;20519;-87
2021/03/30 00:34:06;;;;;;;5.33;2.80;;;10.00;74.00;;;;;;5061453;28;20846;-87
2021/03/30 00:36:32;;;;;;;4.50;2.70;;;10.00;74.00;;;;;;5062185;28;20468;-86
2021/03/30 00:38:59;;;;;;;5.60;2.77;;;10.10;73.90;;;;;;5061380;28;20459;-85
2021/03/30 00:41:25;;;;;;;5.20;2.83;;;10.10;73.70;;;;;;5055837;28;20474;-86
2021/03/30 00:43:52;;;;;;;6.67;3.03;;;10.10;74.00;;;;;;5051490;28;20537;-87
2021/03/30 00:46:20;;;;;;;5.20;2.60;;;10.10;73.50;;;;;;5062721;28;20472;-86
2021/03/30 00:48:48;;;;;;;8.00;3.37;;;10.10;73.90;;;;;;5069644;28;20472;-87
2021/03/30 00:51:15;;;;;;;4.90;2.50;;;10.00;74.30;;;;;;5077680;28;20474;-87
2021/03/30 00:53:41;;;;;;;9.67;3.13;;;9.90;75.80;;;;;;5074550;28;20452;-85
2021/03/30 00:56:08;;;;;;;4.70;2.60;;;9.90;75.60;;;;;;5066394;28;20481;-86
2021/03/30 00:58:35;;;;;;;6.47;2.77;;;9.90;75.70;;;;;;5075146;28;20445;-86
2021/03/30 01:01:02;;;;;;;13.70;3.60;;;9.80;76.20;;;;;;5078955;28;20435;-84
2021/03/30 01:03:28;;;;;;;7.00;3.40;;;9.90;76.40;;;;;;5069823;28;20521;-85
2021/03/30 01:05:55;;;;;;;7.07;3.10;;;9.80;76.40;;;;;;5058463;28;20462;-86
2021/03/30 01:08:42;;;;;;;5.60;2.60;;;9.80;76.30;;;;;;5057039;28;20412;-86
2021/03/30 01:11:22;;;;;;;6.07;3.10;;;9.70;76.40;;;;;;5038543;28;20470;-85
2021/03/30 01:14:04;;;;;;;7.47;2.80;;;9.60;76.70;;;;;;5039789;28;20507;-85
2021/03/30 01:16:39;;;;;;;6.10;3.23;;;9.60;77.50;;;;;;5056783;28;20516;-88
2021/03/30 01:19:18;;;;;;;6.37;3.17;;;9.60;77.60;;;;;;5057205;28;20425;-87
2021/03/30 01:22:24;;;;;;;5.00;2.57;;;9.50;77.80;;;;;;5056269;28;20463;-87
2021/03/30 01:24:55;;;;;;;4.20;2.30;;;9.50;78.10;;;;;;5036560;28;20452;-88
2021/03/30 01:27:32;;;;;;;5.73;3.10;;;9.40;78.00;;;;;;5035822;28;20619;-85
2021/03/30 01:30:02;;;;;;;5.70;2.57;;;9.40;78.30;;;;;;5041883;28;20418;-84
2021/03/30 01:32:35;;;;;;;5.37;2.53;;;9.30;78.40;;;;;;5056604;28;20497;-83
2021/03/30 01:35:04;;;;;;;4.83;2.60;;;9.30;78.50;;;;;;5072212;28;20562;-85
2021/03/30 01:37:35;;;;;;;6.40;2.60;;;9.20;79.10;;;;;;5060123;28;20480;-87
2021/03/30 01:40:03;;;;;;;5.37;2.90;;;9.20;79.50;;;;;;5059632;28;20571;-88
2021/03/30 01:42:30;;;;;;;5.70;2.77;;;9.10;79.90;;;;;;5059363;28;20447;-88
2021/03/30 01:44:59;;;;;;;5.90;3.00;;;9.00;80.60;;;;;;5056589;28;20472;-88
2021/03/30 01:47:28;;;;;;;4.77;2.40;;;9.00;80.90;;;;;;5056816;28;20511;-87
2021/03/30 01:49:55;;;;;;;5.83;2.53;;;8.90;81.30;;;;;;5060882;28;20453;-85
2021/03/30 01:52:22;;;;;;;4.97;2.40;;;8.90;81.80;;;;;;5060086;28;20906;-88
2021/03/30 01:54:50;;;;;;;7.10;2.83;;;8.90;82.00;;;;;;5056159;28;20920;-85
2021/03/30 01:57:20;;;;;;;5.90;3.20;;;9.00;82.10;;;;;;5057789;28;20552;-85
2021/03/30 01:59:48;;;;;;;4.70;2.70;;;9.00;82.10;;;;;;5063650;28;20457;-86
2021/03/30 02:02:16;;;;;;;4.60;2.90;;;9.00;82.60;;;;;;5063926;28;20473;-88
2021/03/30 02:04:44;;;;;;;10.27;2.90;;;9.10;83.00;;;;;;5059988;28;20560;-87
2021/03/30 02:07:13;;;;;;;7.73;2.80;;;8.80;83.30;;;;;;5061388;28;20461;-86
2021/03/30 02:09:45;;;;;;;7.00;2.70;;;8.80;83.40;;;;;;5060168;28;20453;-87
2021/03/30 02:12:13;;;;;;;4.63;2.63;;;8.60;83.20;;;;;;5059945;28;20469;-87
2021/03/30 02:14:40;;;;;;;5.27;2.80;;;8.80;83.40;;;;;;5060666;28;20891;-88
2021/03/30 02:17:11;;;;;;;6.93;2.80;;;8.90;83.50;;;;;;5060655;28;20481;-87
2021/03/30 02:19:46;;;;;;;6.27;3.27;;;8.50;83.70;;;;;;5060949;28;20471;-88
2021/03/30 02:22:27;;;;;;;6.07;2.83;;;8.50;84.10;;;;;;5061384;28;20449;-88
2021/03/30 02:24:56;;;;;;;5.23;2.93;;;8.80;84.30;;;;;;5069830;28;20528;-87
2021/03/30 02:27:24;;;;;;;8.17;2.90;;;8.70;84.10;;;;;;5075668;28;20465;-87
2021/03/30 02:29:52;;;;;;;5.17;3.10;;;8.70;84.20;;;;;;5075684;28;20433;-87
2021/03/30 02:32:21;;;;;;;4.80;2.53;;;8.70;84.00;;;;;;5074499;28;21206;-86
2021/03/30 02:34:50;;;;;;;5.40;2.90;;;8.80;84.40;;;;;;5062398;28;20560;-88
2021/03/30 02:37:19;;;;;;;8.80;2.63;;;8.70;84.40;;;;;;5061551;28;20446;-87
2021/03/30 02:39:47;;;;;;;4.90;3.10;;;8.70;84.60;;;;;;5065397;28;20512;-87
2021/03/30 02:42:15;;;;;;;6.47;3.10;;;8.60;84.40;;;;;;5071600;28;20838;-88
2021/03/30 02:44:42;;;;;;;6.13;2.40;;;8.70;84.90;;;;;;5070834;28;20517;-87
2021/03/30 02:47:11;;;;;;;10.00;3.00;;;8.50;85.00;;;;;;5074870;28;20449;-87
2021/03/30 02:49:38;;;;;;;6.60;2.80;;;8.80;85.20;;;;;;5068679;28;20449;-87
2021/03/30 02:52:07;;;;;;;5.00;3.20;;;8.60;85.10;;;;;;5059604;28;20473;-86
2021/03/30 02:54:33;;;;;;;5.13;2.50;;;8.70;85.30;;;;;;5059016;28;20469;-85
2021/03/30 02:57:01;;;;;;;5.10;2.80;;;8.60;85.30;;;;;;5058768;28;20861;-88
2021/03/30 02:59:29;;;;;;;6.50;2.77;;;8.70;85.60;;;;;;5057787;28;20452;-86
2021/03/30 03:01:57;;;;;;;4.80;2.60;;;8.30;85.40;;;;;;5054268;28;20829;-85
2021/03/30 03:04:25;;;;;;;9.37;2.80;;;8.50;85.50;;;;;;5054625;28;21030;-87
2021/03/30 03:06:51;;;;;;;6.97;2.50;;;8.70;85.60;;;;;;5053622;28;20496;-87
2021/03/30 03:09:19;;;;;;;7.17;3.50;;;8.20;85.00;;;;;;5054317;28;20448;-87
2021/03/30 03:11:48;;;;;;;4.67;2.73;;;8.70;86.30;;;;;;5054450;28;20512;-87
2021/03/30 03:14:17;;;;;;;6.93;3.33;;;8.10;86.70;;;;;;5054374;28;20469;-87
2021/03/30 03:16:44;;;;;;;5.70;2.60;;;8.40;87.30;;;;;;5055210;28;20885;-87
2021/03/30 03:19:11;;;;;;;5.43;2.60;;;8.20;87.30;;;;;;5052273;28;20504;-87
2021/03/30 03:21:38;;;;;;;6.80;2.77;;;7.80;86.80;;;;;;5063452;28;20505;-86
2021/03/30 03:24:09;;;;;;;6.97;2.53;;;8.00;87.30;;;;;;5067189;28;20480;-87
2021/03/30 03:26:37;;;;;;;6.93;3.20;;;8.40;88.00;;;;;;5067045;28;20441;-86
2021/03/30 03:29:11;;;;;;;6.23;2.90;;;7.80;87.40;;;;;;5072236;28;20485;-85
2021/03/30 03:31:38;;;;;;;5.30;2.70;;;8.10;88.30;;;;;;5056722;28;20473;-86
2021/03/30 03:34:05;;;;;;;6.25;2.90;;;8.10;88.80;;;;;;5055112;28;20492;-85
2021/03/30 03:36:37;;;;;;;5.43;2.80;;;8.00;89.20;;;;;;5056051;28;20293;-85
2021/03/30 03:39:05;;;;;;;6.18;3.80;;;8.00;90.00;;;;;;5064104;28;20502;-83
2021/03/30 03:41:31;;;;;;;6.35;2.58;;;7.90;90.10;;;;;;5055929;28;20198;-87
2021/03/30 03:43:58;;;;;;;7.00;3.83;;;7.80;90.10;;;;;;5058059;28;20272;-88
2021/03/30 03:46:25;;;;;;;4.93;2.70;;;7.90;90.40;;;;;;5043002;28;20489;-86
2021/03/30 03:48:52;;;;;;;8.93;3.37;;;8.20;90.60;;;;;;5041943;28;20924;-86
2021/03/30 03:51:19;;;;;;;11.27;3.07;;;8.00;90.50;;;;;;5049922;28;20508;-86
2021/03/30 03:53:48;;;;;;;6.22;3.10;;;8.10;90.80;;;;;;5064718;28;20534;-88
2021/03/30 03:56:20;;;;;;;5.30;2.78;;;8.00;90.80;;;;;;5058412;28;20313;-87
2021/03/30 03:58:49;;;;;;;7.25;3.42;;;8.00;91.20;;;;;;5058084;28;20198;-88
2021/03/30 04:01:22;;;;;;;5.85;3.22;;;8.10;90.80;;;;;;5062118;28;20206;-87
2021/03/30 04:03:50;;;;;;;8.73;3.70;;;8.00;90.90;;;;;;5065809;28;20650;-87
2021/03/30 04:06:18;;;;;;;9.03;3.10;;;7.60;90.70;;;;;;5064000;28;20289;-86
2021/03/30 04:08:48;;;;;;;12.65;3.13;;;8.00;90.90;;;;;;5064678;28;20494;-86
2021/03/30 04:11:16;;;;;;;7.50;3.77;;;8.00;91.00;;;;;;5068318;28;20258;-87
2021/03/30 04:13:44;;;;;;;12.57;3.33;;;8.00;91.20;;;;;;5066256;28;20544;-87
2021/03/30 04:16:11;;;;;;;7.18;3.40;;;8.00;91.40;;;;;;5063056;28;20500;-87
2021/03/30 04:18:40;;;;;;;8.43;2.90;;;7.50;91.40;;;;;;5063500;28;20207;-87
2021/03/30 04:21:12;;;;;;;7.10;3.17;;;7.70;91.60;;;;;;5062349;28;21090;-86
2021/03/30 04:23:43;;;;;;;6.63;3.57;;;7.90;91.90;;;;;;5062244;28;20501;-87
2021/03/30 04:26:10;;;;;;;5.83;3.20;;;7.70;92.10;;;;;;5061696;28;21024;-87
2021/03/30 04:28:36;;;;;;;5.37;3.43;;;7.80;92.20;;;;;;5062708;28;20485;-87
2021/03/30 04:31:03;;;;;;;7.95;3.53;;;7.70;92.10;;;;;;5069197;28;20519;-85
2021/03/30 04:33:29;;;;;;;7.70;3.17;;;7.80;92.30;;;;;;5070879;28;20249;-86
2021/03/30 04:35:57;;;;;;;7.35;3.38;;;7.90;92.60;;;;;;5068314;28;20514;-86
2021/03/30 04:38:24;;;;;;;9.57;3.50;;;7.80;92.70;;;;;;5060772;28;20246;-88
2021/03/30 04:40:53;;;;;;;8.73;3.60;;;7.90;92.70;;;;;;5055390;28;20215;-86
2021/03/30 04:43:19;;;;;;;7.60;3.65;;;7.20;92.70;;;;;;5039266;28;21319;-89
2021/03/30 04:45:46;;;;;;;6.00;3.13;;;7.70;93.00;;;;;;5038892;28;20207;-88
2021/03/30 04:48:12;;;;;;;8.03;3.67;;;7.50;92.90;;;;;;5038951;28;20246;-88
2021/03/30 04:50:39;;;;;;;7.75;3.42;;;7.90;93.00;;;;;;5054403;28;20482;-84
2021/03/30 04:53:06;;;;;;;6.20;3.13;;;8.10;93.10;;;;;;5077894;28;20223;-84
2021/03/30 04:55:32;;;;;;;7.63;3.30;;;7.70;93.00;;;;;;5070817;28;20839;-87
2021/03/30 04:57:59;;;;;;;7.25;3.47;;;7.80;93.10;;;;;;5060987;28;20708;-86
2021/03/30 05:00:25;;;;;;;6.53;3.40;;;7.90;93.10;;;;;;5078325;28;20190;-84
2021/03/30 05:02:52;;;;;;;8.52;5.70;;;7.60;93.20;;;;;;5077428;28;20195;-85
2021/03/30 05:05:18;;;;;;;9.23;3.35;;;7.40;93.30;;;;;;5069635;28;20242;-85
2021/03/30 05:07:45;;;;;;;8.68;4.05;;;7.70;93.60;;;;;;5058108;28;20244;-88
2021/03/30 05:10:13;;;;;;;11.45;3.50;;;7.70;94.00;;;;;;5056461;28;20230;-87
2021/03/30 05:12:39;;;;;;;8.80;3.92;;;7.80;93.80;;;;;;5056972;28;20293;-87
2021/03/30 05:15:07;;;;;;;11.63;5.95;;;7.40;93.90;;;;;;5056967;28;20257;-88
2021/03/30 05:17:34;;;;;;;16.50;4.37;;;7.70;94.00;;;;;;5051643;28;20203;-86
2021/03/30 05:20:00;;;;;;;10.50;4.05;;;7.60;94.00;;;;;;5038225;28;20485;-87
2021/03/30 05:22:27;;;;;;;13.05;5.40;;;7.40;94.20;;;;;;5042998;28;20330;-89
2021/03/30 05:24:53;;;;;;;5.53;3.28;;;7.60;94.40;;;;;;5071601;28;20248;-88
2021/03/30 05:27:20;;;;;;;9.80;4.20;;;7.50;94.60;;;;;;5073390;28;20262;-86
2021/03/30 05:29:46;;;;;;;9.18;4.40;;;7.40;94.60;;;;;;5044590;28;20457;-86
2021/03/30 05:32:14;;;;;;;5.72;3.58;;;7.50;94.90;;;;;;5038077;28;20287;-86
2021/03/30 05:34:41;;;;;;;13.88;3.40;;;7.50;94.90;;;;;;5037594;28;20264;-88
2021/03/30 05:37:07;;;;;;;7.40;3.75;;;7.40;95.00;;;;;;5043793;28;20286;-88
2021/03/30 05:39:34;;;;;;;9.20;3.47;;;7.30;95.30;;;;;;5069608;28;20226;-89
2021/03/30 05:42:01;;;;;;;7.93;3.80;;;7.50;95.60;;;;;;5076362;28;20449;-85
2021/03/30 05:44:35;;;;;;;6.90;3.70;;;7.60;95.60;;;;;;5076504;28;20253;-87
2021/03/30 05:47:15;;;;;;;10.23;3.70;;;7.40;95.40;;;;;;5071258;28;20441;-87
2021/03/30 05:49:42;;;;;;;8.25;4.07;;;7.60;95.40;;;;;;5070764;28;20213;-86
2021/03/30 05:52:16;;;;;;;10.97;3.70;;;7.50;95.60;;;;;;5061178;28;20234;-85
2021/03/30 05:54:46;;;;;;;6.33;4.00;;;7.50;95.70;;;;;;5053317;28;20548;-86
2021/03/30 05:57:16;;;;;;;12.68;4.15;;;7.60;95.80;;;;;;5074315;28;20446;-84
2021/03/30 05:59:45;;;;;;;11.50;5.13;;;7.90;95.90;;;;;;5065734;28;20202;-87
2021/03/30 06:02:20;;;;;;;8.73;4.20;;;7.90;95.80;;;;;;5058123;28;20297;-85
2021/03/30 06:04:51;;;;;;;9.73;3.80;;;7.90;95.80;;;;;;5061636;28;20476;-86
2021/03/30 06:07:17;;;;;;;7.30;3.97;;;8.00;95.70;;;;;;5072320;28;20487;-85
2021/03/30 06:09:45;;;;;;;9.63;4.50;;;8.20;95.80;;;;;;5071812;28;20455;-85
2021/03/30 06:12:13;;;;;;;13.23;5.43;;;8.10;95.80;;;;;;5073327;28;20473;-86
2021/03/30 06:14:41;;;;;;;9.80;5.27;;;8.10;95.90;;;;;;5074155;28;20473;-85
2021/03/30 06:17:09;;;;;;;12.83;5.40;;;8.30;96.10;;;;;;5068269;28;20452;-85
2021/03/30 06:19:52;;;;;;;9.80;5.27;;;8.20;96.00;;;;;;5064061;28;20457;-88
2021/03/30 06:22:20;;;;;;;12.50;5.50;;;8.40;96.10;;;;;;5068644;28;20437;-87
2021/03/30 06:24:47;;;;;;;10.30;5.37;;;8.50;96.10;;;;;;5070298;28;20488;-88
2021/03/30 06:27:24;;;;;;;12.47;5.60;;;8.60;95.90;;;;;;5073016;28;20475;-86
2021/03/30 06:29:52;;;;;;;12.20;5.60;;;8.70;95.80;;;;;;5072687;28;20453;-87
2021/03/30 06:32:21;;;;;;;13.97;6.27;;;8.90;95.80;;;;;;5056123;28;20588;-86
2021/03/30 06:34:50;;;;;;;12.90;5.80;;;9.00;95.60;;;;;;5057395;28;20609;-88
2021/03/30 06:37:38;;;;;;;12.77;6.33;;;8.80;95.30;;;;;;5058771;28;20457;-87
2021/03/30 06:40:20;;;;;;;13.00;5.20;;;9.20;95.20;;;;;;5059728;28;20989;-87
2021/03/30 06:42:50;;;;;;;8.93;5.60;;;9.40;95.10;;;;;;5064140;28;20483;-89
2021/03/30 06:45:21;;;;;;;19.30;6.10;;;9.50;94.90;;;;;;5066206;28;20447;-88
2021/03/30 06:47:51;;;;;;;13.27;6.33;;;9.60;94.60;;;;;;5064346;28;20449;-88
2021/03/30 06:50:31;;;;;;;10.77;5.70;;;9.70;94.50;;;;;;5063662;28;20457;-87
2021/03/30 06:53:09;;;;;;;16.70;6.13;;;9.70;94.40;;;;;;5062933;28;20477;-86
2021/03/30 06:55:49;;;;;;;15.43;6.43;;;9.90;94.40;;;;;;5066480;28;20473;-87
2021/03/30 06:58:17;;;;;;;15.43;6.20;;;9.90;94.30;;;;;;5070796;28;20438;-88
2021/03/30 07:00:45;;;;;;;10.83;6.03;;;10.00;93.60;;;;;;5069653;28;20469;-88
2021/03/30 07:03:14;;;;;;;14.40;6.47;;;10.10;93.80;;;;;;5063876;28;20448;-87
2021/03/30 07:05:42;;;;;;;9.93;5.40;;;10.20;92.90;;;;;;5063762;28;20805;-88
2021/03/30 07:08:10;;;;;;;12.03;5.93;;;10.20;92.30;;;;;;5063817;28;20456;-88
2021/03/30 07:10:40;;;;;;;20.10;6.73;;;10.30;92.10;;;;;;5066082;28;20491;-87
2021/03/30 07:13:10;;;;;;;12.43;6.10;;;10.30;92.00;;;;;;5068222;28;20468;-87
2021/03/30 07:15:38;;;;;;;12.23;5.57;;;10.40;92.00;;;;;;5062219;28;20454;-88
2021/03/30 07:18:08;;;;;;;13.20;6.17;;;10.60;91.80;;;;;;5062335;28;20820;-87
2021/03/30 07:20:40;;;;;;;23.23;7.17;;;10.70;91.70;;;;;;5062554;28;20441;-87
2021/03/30 07:23:09;;;;;;;13.33;6.00;;;10.90;91.30;;;;;;5060993;28;20453;-89
2021/03/30 07:25:47;;;;;;;16.27;6.53;;;11.10;90.90;;;;;;5059269;28;20440;-87
2021/03/30 07:28:21;;;;;;;12.37;5.63;;;11.30;90.70;;;;;;5059884;28;20442;-88
2021/03/30 07:30:54;;;;;;;13.00;5.57;;;11.50;90.20;;;;;;5070186;28;20433;-89
2021/03/30 07:33:26;;;;;;;10.27;6.57;;;11.70;89.40;;;;;;5073602;28;20536;-89
2021/03/30 07:35:57;;;;;;;9.03;5.20;;;11.80;88.70;;;;;;5074711;28;20463;-89
2021/03/30 07:38:28;;;;;;;15.47;6.57;;;11.90;88.20;;;;;;5062013;28;20437;-88
2021/03/30 07:40:54;;;;;;;11.17;6.77;;;12.00;87.70;;;;;;5060037;28;20436;-88
2021/03/30 07:43:24;;;;;;;14.10;6.60;;;12.20;86.90;;;;;;5059327;28;20523;-87
2021/03/30 07:45:55;;;;;;;16.63;7.30;;;12.40;86.10;;;;;;5060663;28;20427;-87
2021/03/30 07:48:24;;;;;;;12.20;7.53;;;12.60;85.70;;;;;;5059696;28;20822;-88
2021/03/30 07:50:55;;;;;;;14.90;7.30;;;12.70;85.10;;;;;;5059727;28;20424;-86
2021/03/30 07:53:45;;;;;;;12.33;6.70;;;12.90;84.40;;;;;;5059706;28;20838;-87
2021/03/30 07:56:13;;;;;;;9.90;6.20;;;12.80;83.90;;;;;;5060025;28;20436;-86
2021/03/30 07:58:44;;;;;;;9.80;6.20;;;12.90;83.90;;;;;;5060454;28;20443;-86
2021/03/30 08:01:11;;;;;;;10.37;6.40;;;12.80;83.40;;;;;;5061269;28;20441;-87
2021/03/30 08:03:39;;;;;;;12.27;6.47;;;12.80;83.60;;;;;;5061482;28;20450;-87
2021/03/30 08:06:19;;;;;;;12.43;6.90;;;12.90;84.20;;;;;;5062019;28;20463;-88
2021/03/30 08:08:57;;;;;;;13.03;7.30;;;12.90;83.50;;;;;;5062121;28;20503;-87
2021/03/30 08:11:54;;;;;;;13.10;7.17;;;13.00;83.30;;;;;;5064125;28;20485;-89
2021/03/30 08:14:40;;;;;;;13.87;6.60;;;13.00;83.00;;;;;;5056642;28;20514;-88
2021/03/30 08:17:12;;;;;;;11.23;7.83;;;13.10;83.10;;;;;;5067011;28;20412;-87
2021/03/30 08:19:55;;;;;;;13.67;7.40;;;13.20;83.30;;;;;;5062534;28;20508;-87
2021/03/30 08:22:25;;;;;;;12.70;7.00;;;13.30;82.70;;;;;;5070823;28;20510;-87
2021/03/30 08:24:56;;;;;;;12.43;7.67;;;13.50;81.90;;;;;;5068424;28;20536;-85
2021/03/30 08:27:39;;;;;;;16.37;7.30;;;13.60;82.10;;;;;;5071759;28;20424;-85
2021/03/30 08:30:14;;;;;;;17.53;10.20;;;13.60;82.30;;;;;;5071861;28;20412;-86
2021/03/30 08:32:46;;;;;;;18.37;8.60;;;13.70;82.90;;;;;;5061185;28;20472;-85
2021/03/30 08:35:31;;;;;;;16.40;8.40;;;13.80;83.60;;;;;;5062008;28;20503;-87
2021/03/30 08:37:59;;;;;;;11.17;8.27;;;14.00;83.80;;;;;;5065331;28;20455;-85
2021/03/30 08:40:43;;;;;;;15.27;8.37;;;14.10;83.70;;;;;;5067130;28;20462;-87
2021/03/30 08:43:21;;;;;;;21.00;8.90;;;14.20;83.50;;;;;;5071651;28;20416;-85
2021/03/30 08:46:04;;;;;;;12.57;8.87;;;14.20;83.60;;;;;;5076085;28;20468;-85
2021/03/30 08:48:35;;;;;;;18.27;8.60;;;14.40;83.50;;;;;;5078131;28;20435;-85
2021/03/30 08:51:03;;;;;;;13.90;8.13;;;14.50;83.00;;;;;;5078792;28;20627;-83
2021/03/30 08:53:31;;;;;;;18.10;8.30;;;14.70;82.60;;;;;;5079276;28;20523;-83
2021/03/30 08:55:59;;;;;;;20.93;8.77;;;14.80;82.10;;;;;;5078975;28;20408;-83
2021/03/30 08:58:26;;;;;;;19.50;8.40;;;14.90;81.80;;;;;;5078688;28;20460;-84
2021/03/30 09:00:55;;;;;;;16.57;8.10;;;14.90;81.20;;;;;;5076959;28;20449;-85
2021/03/30 09:03:26;;;;;;;14.40;8.00;;;15.10;81.10;;;;;;5079642;28;20445;-84
2021/03/30 09:05:52;;;;;;;16.70;7.30;;;15.20;81.00;;;;;;5077045;28;20446;-88
2021/03/30 09:08:35;;;;;;;13.43;8.10;;;15.30;80.50;;;;;;5075302;28;20440;-88
2021/03/30 09:11:18;;;;;;;13.23;7.80;;;15.40;80.40;;;;;;5061335;28;20447;-87
2021/03/30 09:14:02;;;;;;;18.57;7.80;;;15.60;79.60;;;;;;5061205;28;20506;-87
2021/03/30 09:16:29;;;;;;;17.00;6.50;;;15.70;79.40;;;;;;5060687;28;20451;-86
2021/03/30 09:19:17;;;;;;;11.53;7.33;;;15.80;79.30;;;;;;5060336;28;20465;-88
2021/03/30 09:21:45;;;;;;;15.80;7.20;;;15.90;79.30;;;;;;5061817;28;20924;-88
2021/03/30 09:24:22;;;;;;;12.40;6.87;;;16.10;78.60;;;;;;5040677;28;20490;-86
2021/03/30 09:26:49;;;;;;;14.33;6.60;;;16.10;78.30;;;;;;5040829;28;20471;-87
2021/03/30 09:29:17;;;;;;;11.83;7.10;;;16.20;76.80;;;;;;5040299;28;20466;-88
2021/03/30 09:31:45;;;;;;;15.03;6.97;;;16.30;76.80;;;;;;5041410;28;20486;-87
2021/03/30 09:34:11;;;;;;;12.00;7.50;;;16.40;76.90;;;;;;5043754;28;20477;-86
2021/03/30 09:36:48;;;;;;;19.67;7.50;;;16.50;76.80;;;;;;5055439;28;20472;-86
2021/03/30 09:39:20;;;;;;;10.60;6.00;;;16.60;77.00;;;;;;5061520;28;20502;-88
2021/03/30 09:41:48;;;;;;;8.67;6.20;;;16.60;75.80;;;;;;5061386;28;20424;-87
2021/03/30 09:44:15;;;;;;;12.37;7.20;;;16.70;75.50;;;;;;5061799;28;20496;-86
2021/03/30 09:46:43;;;;;;;11.77;7.30;;;16.80;75.20;;;;;;5065585;28;20470;-85
2021/03/30 09:49:11;;;;;;;15.07;7.07;;;16.90;75.30;;;;;;5063014;28;20455;-86
2021/03/30 09:51:38;;;;;;;9.80;6.47;;;17.00;75.10;;;;;;5061083;28;20466;-88
2021/03/30 09:54:25;;;;;;;11.60;7.00;;;17.00;74.30;;;;;;5065514;28;20484;-88
2021/03/30 09:57:00;;;;;;;12.03;7.27;;;17.10;74.60;;;;;;5067275;28;20456;-85
2021/03/30 09:59:27;;;;;;;17.13;7.03;;;17.20;74.30;;;;;;5062232;28;20464;-87
2021/03/30 10:01:53;;;;;;;13.60;6.97;;;17.30;74.20;;;;;;5071023;28;20449;-85
2021/03/30 10:04:24;;;;;;;11.07;5.67;;;17.40;74.00;;;;;;5077496;28;20473;-91
2021/03/30 10:06:52;;;;;;;12.63;7.70;;;17.50;73.70;;;;;;5078103;28;20384;-86
2021/03/30 10:09:20;;;;;;;18.87;8.07;;;17.50;72.90;;;;;;5074996;28;20459;-87
2021/03/30 10:11:50;;;;;;;9.93;6.60;;;17.70;73.00;;;;;;5068112;28;20481;-87
2021/03/30 10:14:20;;;;;;;12.70;7.37;;;17.80;72.40;;;;;;5066138;28;20483;-88
2021/03/30 10:16:47;;;;;;;12.23;6.80;;;17.90;71.50;;;;;;5068884;28;20453;-87
2021/03/30 10:19:14;;;;;;;15.27;7.73;;;18.00;71.80;;;;;;5069270;28;20441;-90
2021/03/30 10:21:42;;;;;;;11.30;7.63;;;18.10;70.60;;;;;;5068231;28;20441;-88
2021/03/30 10:24:15;;;;;;;15.50;7.97;;;18.30;69.70;;;;;;5062241;28;21078;-89
2021/03/30 10:26:42;;;;;;;14.13;5.77;;;18.30;69.30;;;;;;5072509;28;20460;-88
2021/03/30 10:29:13;;;;;;;12.60;6.57;;;18.30;68.30;;;;;;5071729;28;20461;-86
2021/03/30 10:31:44;;;;;;;15.40;7.10;;;18.50;67.60;;;;;;5065319;28;20987;-87
2021/03/30 10:34:24;;;;;;;11.30;7.40;;;18.60;66.90;;;;;;5067775;28;20478;-87
2021/03/30 10:36:52;;;;;;;10.50;6.43;;;18.70;66.00;;;;;;5065739;28;20453;-85
2021/03/30 10:39:28;;;;;;;11.03;7.20;;;18.80;64.20;;;;;;5067644;28;20449;-89
2021/03/30 10:42:05;;;;;;;13.03;6.63;;;18.90;63.50;;;;;;5064574;28;20476;-86
2021/03/30 10:44:38;;;;;;;11.43;6.60;;;19.00;61.90;;;;;;5068818;28;20492;-87
2021/03/30 10:47:17;;;;;;;14.10;7.33;;;19.10;61.60;;;;;;5048822;28;20535;-86
2021/03/30 10:49:44;;;;;;;12.73;6.40;;;19.20;61.10;;;;;;5053834;28;21114;-87
2021/03/30 10:52:15;;;;;;;13.73;8.10;;;19.20;60.00;;;;;;5048827;28;20456;-87
2021/03/30 10:54:43;;;;;;;10.50;7.03;;;19.40;60.30;;;;;;5053155;28;20526;-87
2021/03/30 10:57:14;;;;;;;12.63;6.30;;;19.50;59.10;;;;;;5053416;28;20497;-86
2021/03/30 10:59:43;;;;;;;10.40;6.53;;;19.60;57.70;;;;;;5050255;28;20438;-87
2021/03/30 11:02:11;;;;;;;11.27;5.90;;;19.70;57.30;;;;;;5049219;28;20851;-88
2021/03/30 11:04:38;;;;;;;9.53;5.77;;;19.80;56.30;;;;;;5054868;28;20565;-86
2021/03/30 11:07:06;;;;;;;8.33;5.13;;;19.80;56.30;;;;;;5067147;28;20433;-85
2021/03/30 11:09:33;;;;;;;10.40;5.40;;;19.90;56.50;;;;;;5066303;28;20452;-87
2021/03/30 11:12:00;;;;;;;7.00;5.47;;;19.90;55.90;;;;;;5063090;28;20485;-86
2021/03/30 11:14:27;;;;;;;9.10;5.80;;;20.10;55.30;;;;;;5062392;28;20468;-87
2021/03/30 11:16:54;;;;;;;7.60;5.10;;;20.20;55.00;;;;;;5062644;28;20535;-88
2021/03/30 11:19:21;;;;;;;11.70;6.27;;;20.20;54.20;;;;;;5062369;28;20492;-87
2021/03/30 11:21:48;;;;;;;8.53;5.97;;;20.30;53.40;;;;;;5063879;28;20816;-89
2021/03/30 11:24:19;;;;;;;10.87;5.37;;;20.40;52.60;;;;;;5086294;22;20848;-84
2021/03/30 11:26:47;;;;;;;11.23;5.73;;;20.50;52.00;;;;;;5097862;28;20945;-84
2021/03/30 11:29:18;;;;;;;7.70;5.00;;;20.50;51.90;;;;;;5094751;28;20460;-84
2021/03/30 11:32:14;;;;;;;7.60;4.53;;;20.70;51.00;;;;;;5078308;28;20934;-84
2021/03/30 11:34:45;;;;;;;8.00;4.70;;;20.60;50.40;;;;;;5099341;28;20487;-84
2021/03/30 11:37:20;;;;;;;9.90;5.93;;;20.70;50.10;;;;;;5099908;28;20495;-84
2021/03/30 11:39:47;;;;;;;10.40;5.13;;;20.80;50.30;;;;;;5100305;28;20537;-84
2021/03/30 11:42:13;;;;;;;8.37;4.70;;;20.80;50.40;;;;;;5100936;28;20490;-84
2021/03/30 11:44:40;;;;;;;6.87;4.50;;;20.90;50.00;;;;;;5100645;28;20490;-83
2021/03/30 11:47:07;;;;;;;8.80;4.87;;;20.90;49.50;;;;;;5099875;28;20466;-85
2021/03/30 11:49:35;;;;;;;11.70;5.27;;;21.00;49.20;;;;;;5095026;28;20482;-84
2021/03/30 11:52:04;;;;;;;7.70;4.87;;;21.00;49.10;;;;;;5096918;28;20519;-85
2021/03/30 11:54:31;;;;;;;9.20;4.87;;;21.10;48.60;;;;;;5100666;28;20477;-84
2021/03/30 11:56:58;;;;;;;7.63;4.70;;;21.10;49.40;;;;;;5095290;28;20512;-84
2021/03/30 11:59:24;;;;;;;6.20;4.37;;;21.30;48.40;;;;;;5095133;28;21014;-83
2021/03/30 12:01:51;;;;;;;7.30;4.50;;;21.30;48.40;;;;;;5096157;28;20487;-84
2021/03/30 12:04:18;;;;;;;6.17;4.37;;;21.30;48.30;;;;;;5097970;28;20605;-84
2021/03/30 12:06:44;;;;;;;7.97;5.20;;;21.30;48.60;;;;;;5097908;28;20435;-83
2021/03/30 12:09:11;;;;;;;7.93;4.90;;;21.40;48.00;;;;;;5102842;28;20945;-83
2021/03/30 12:11:38;;;;;;;8.83;5.03;;;21.50;47.80;;;;;;5099411;28;21009;-83
2021/03/30 12:14:05;;;;;;;8.17;4.60;;;21.50;47.50;;;;;;5102496;28;20542;-83
2021/03/30 12:16:31;;;;;;;6.33;4.33;;;21.60;47.40;;;;;;5103711;28;20512;-83
2021/03/30 12:18:58;;;;;;;8.37;4.90;;;21.60;46.90;;;;;;5103237;28;20467;-85
2021/03/30 12:21:25;;;;;;;8.70;4.73;;;21.60;46.90;;;;;;5103038;28;20463;-85
2021/03/30 12:23:51;;;;;;;6.37;4.87;;;21.60;46.60;;;;;;5102352;28;20447;-85
2021/03/30 12:26:19;;;;;;;9.23;5.37;;;21.60;46.20;;;;;;5103091;28;20505;-85
2021/03/30 12:28:45;;;;;;;6.40;4.23;;;21.60;45.70;;;;;;5102326;28;20510;-85
2021/03/30 12:31:12;;;;;;;8.43;4.23;;;21.50;45.70;;;;;;5101863;28;20435;-84
2021/03/30 12:33:38;;;;;;;14.60;4.67;;;21.50;45.90;;;;;;5101228;28;20489;-84
2021/03/30 12:36:06;;;;;;;6.77;4.10;;;21.50;45.90;;;;;;5101670;28;20491;-84
2021/03/30 12:38:33;;;;;;;10.07;4.63;;;21.60;44.80;;;;;;5102933;28;20482;-84
2021/03/30 12:40:59;;;;;;;6.03;4.07;;;21.70;44.50;;;;;;5102614;28;20455;-83
2021/03/30 12:43:27;;;;;;;9.20;4.87;;;21.70;45.00;;;;;;5101426;28;20458;-84
2021/03/30 12:45:53;;;;;;;9.00;4.33;;;21.70;43.70;;;;;;5102079;28;20459;-84
2021/03/30 12:48:20;;;;;;;9.33;4.10;;;21.80;42.90;;;;;;5102963;28;20447;-84
2021/03/30 12:50:46;;;;;;;6.30;3.47;;;21.80;41.80;;;;;;5101277;28;20534;-84
2021/03/30 12:53:12;;;;;;;7.67;3.63;;;21.90;40.60;;;;;;5101499;28;20550;-83
2021/03/30 12:55:39;;;;;;;6.33;3.33;;;21.90;39.90;;;;;;5101167;28;20494;-84
2021/03/30 12:58:05;;;;;;;7.97;4.00;;;21.90;39.50;;;;;;5102397;28;20462;-84
2021/03/30 13:00:34;;;;;;;6.63;3.63;;;22.00;41.00;;;;;;5103724;28;20462;-84
2021/03/30 13:03:00;;;;;;;11.80;4.17;;;22.10;41.10;;;;;;5104875;28;20511;-84